TOM7PA EGKK-HEGN
Flight info
| Callsign | TOM7PA |
|---|---|
| Flight time | N/A |
| Altitude | 33000 |
| Route | MIMF1M MIMFO Y312 DVR UL9 KONAN UL607 KOK SISGA KOMOB PITES M150 KRH UTABA MOMUK GEDSO VEKEN MSR PINDO PIKOS GERMI MIL UL617 SIT UL607 PAXIS Y707 OBRAN L321 REXUM M872 BOPOB BOPO1A |
| Aircraft | B738/M-V/N |
Departure
| Time | 2026-04-15 10:03 |
|---|---|
| Airport | London Gatwick Airport (EGKK) |
Arrival
| Time | N/A |
|---|---|
| Airport | Hurghada International Airport (HEGN) |
| Time | Latitude | Longitude | Altitude | Speed | Heading |
|---|---|---|---|---|---|
| 2026-04-15 09:27 | 51.15766 | -0.17889 | 204 ft | 0 kts | 347° |
| 2026-04-15 09:47 | 51.15762 | -0.17887 | 204 ft | 2 kts | 348° |
| 2026-04-15 09:47 | 51.15742 | -0.17882 | 204 ft | 3 kts | 357° |
| 2026-04-15 09:47 | 51.15723 | -0.17883 | 204 ft | 3 kts | 12° |
| 2026-04-15 09:47 | 51.15705 | -0.17893 | 204 ft | 3 kts | 40° |
| 2026-04-15 09:48 | 51.15696 | -0.17912 | 204 ft | 1 kts | 77° |
| 2026-04-15 09:48 | 51.15694 | -0.17921 | 204 ft | 0 kts | 78° |
| 2026-04-15 09:54 | 51.15696 | -0.17908 | 204 ft | 3 kts | 78° |
| 2026-04-15 09:54 | 51.15702 | -0.17864 | 204 ft | 5 kts | 78° |
| 2026-04-15 09:55 | 51.15709 | -0.17811 | 204 ft | 6 kts | 78° |
| 2026-04-15 09:55 | 51.15715 | -0.17767 | 204 ft | 6 kts | 78° |
| 2026-04-15 09:55 | 51.15733 | -0.17644 | 204 ft | 9 kts | 77° |
| 2026-04-15 09:55 | 51.15744 | -0.17549 | 204 ft | 9 kts | 95° |
| 2026-04-15 09:56 | 51.15719 | -0.17508 | 204 ft | 8 kts | 164° |
| 2026-04-15 09:56 | 51.15664 | -0.17488 | 204 ft | 8 kts | 167° |
| 2026-04-15 09:56 | 51.15544 | -0.17445 | 204 ft | 7 kts | 167° |
| 2026-04-15 09:57 | 51.15512 | -0.17434 | 204 ft | 7 kts | 167° |
| 2026-04-15 09:57 | 51.15466 | -0.17417 | 204 ft | 7 kts | 167° |
| 2026-04-15 09:57 | 51.15421 | -0.17402 | 204 ft | 7 kts | 167° |
| 2026-04-15 09:57 | 51.15377 | -0.17387 | 204 ft | 6 kts | 168° |
| 2026-04-15 09:58 | 51.15290 | -0.17356 | 204 ft | 6 kts | 167° |
| 2026-04-15 09:58 | 51.15251 | -0.17339 | 204 ft | 6 kts | 153° |
| 2026-04-15 09:58 | 51.15232 | -0.17289 | 204 ft | 6 kts | 88° |
| 2026-04-15 09:59 | 51.15239 | -0.17227 | 204 ft | 6 kts | 78° |
| 2026-04-15 09:59 | 51.15247 | -0.17168 | 204 ft | 5 kts | 78° |
| 2026-04-15 09:59 | 51.15255 | -0.17111 | 204 ft | 5 kts | 77° |
| 2026-04-15 09:59 | 51.15263 | -0.17057 | 204 ft | 5 kts | 77° |
| 2026-04-15 10:00 | 51.15271 | -0.17004 | 204 ft | 5 kts | 77° |
| 2026-04-15 10:00 | 51.15278 | -0.16954 | 204 ft | 5 kts | 77° |
| 2026-04-15 10:00 | 51.15285 | -0.16905 | 204 ft | 4 kts | 77° |
| 2026-04-15 10:00 | 51.15292 | -0.16859 | 204 ft | 4 kts | 77° |
| 2026-04-15 10:01 | 51.15279 | -0.16828 | 204 ft | 4 kts | 175° |
| 2026-04-15 10:01 | 51.15251 | -0.16823 | 204 ft | 4 kts | 169° |
| 2026-04-15 10:01 | 51.15225 | -0.16815 | 204 ft | 4 kts | 169° |
| 2026-04-15 10:01 | 51.15200 | -0.16807 | 204 ft | 4 kts | 169° |
| 2026-04-15 10:02 | 51.15176 | -0.16800 | 204 ft | 4 kts | 169° |
| 2026-04-15 10:02 | 51.15133 | -0.16802 | 204 ft | 7 kts | 207° |
| 2026-04-15 10:02 | 51.15105 | -0.16862 | 204 ft | 8 kts | 255° |
| 2026-04-15 10:02 | 51.15079 | -0.17041 | 204 ft | 37 kts | 257° |
| 2026-04-15 10:03 | 51.14961 | -0.17785 | 204 ft | 99 kts | 254° |
| 2026-04-15 10:03 | 51.14787 | -0.19143 | 204 ft | 150 kts | 257° |
| 2026-04-15 10:03 | 51.14544 | -0.20884 | 587 ft | 165 kts | 257° |
| 2026-04-15 10:03 | 51.14283 | -0.22671 | 1270 ft | 169 kts | 258° |
| 2026-04-15 10:04 | 51.14054 | -0.24531 | 1926 ft | 174 kts | 258° |
| 2026-04-15 10:04 | 51.13819 | -0.26487 | 2379 ft | 188 kts | 258° |
| 2026-04-15 10:04 | 51.13799 | -0.28676 | 2636 ft | 209 kts | 283° |
| 2026-04-15 10:04 | 51.14550 | -0.30717 | 3072 ft | 220 kts | 315° |
| 2026-04-15 10:05 | 51.15890 | -0.31919 | 3645 ft | 226 kts | 344° |
| 2026-04-15 10:05 | 51.17454 | -0.31734 | 4251 ft | 234 kts | 21° |
| 2026-04-15 10:05 | 51.18719 | -0.30038 | 4685 ft | 255 kts | 56° |
| 2026-04-15 10:05 | 51.19341 | -0.27345 | 5264 ft | 266 kts | 73° |
| 2026-04-15 10:06 | 51.19789 | -0.24427 | 5957 ft | 271 kts | 74° |
| 2026-04-15 10:06 | 51.20199 | -0.21475 | 6658 ft | 274 kts | 75° |
| 2026-04-15 10:06 | 51.20594 | -0.18485 | 7345 ft | 278 kts | 76° |
| 2026-04-15 10:06 | 51.20981 | -0.15440 | 8026 ft | 281 kts | 76° |
| 2026-04-15 10:07 | 51.21393 | -0.12360 | 8701 ft | 284 kts | 75° |
| 2026-04-15 10:07 | 51.21811 | -0.09279 | 9362 ft | 287 kts | 75° |
| 2026-04-15 10:07 | 51.22225 | -0.06145 | 10050 ft | 289 kts | 75° |
| 2026-04-15 10:07 | 51.22637 | -0.02984 | 10684 ft | 293 kts | 76° |
| 2026-04-15 10:08 | 51.23055 | 0.00254 | 11103 ft | 305 kts | 76° |
| 2026-04-15 10:08 | 51.23491 | 0.03643 | 11391 ft | 319 kts | 77° |
| 2026-04-15 10:08 | 51.23944 | 0.07197 | 11609 ft | 335 kts | 77° |
| 2026-04-15 10:08 | 51.24420 | 0.10930 | 11821 ft | 349 kts | 77° |
| 2026-04-15 10:09 | 51.24914 | 0.14803 | 12104 ft | 360 kts | 77° |
| 2026-04-15 10:09 | 51.25247 | 0.18749 | 12598 ft | 365 kts | 84° |
| 2026-04-15 10:09 | 51.25277 | 0.22856 | 13178 ft | 367 kts | 91° |
| 2026-04-15 10:09 | 51.25078 | 0.26875 | 13727 ft | 369 kts | 95° |
| 2026-04-15 10:10 | 51.24741 | 0.31005 | 14282 ft | 371 kts | 97° |
| 2026-04-15 10:10 | 51.24397 | 0.35097 | 14818 ft | 372 kts | 96° |
| 2026-04-15 10:10 | 51.24077 | 0.39142 | 15327 ft | 374 kts | 96° |
| 2026-04-15 10:10 | 51.23757 | 0.43268 | 15856 ft | 375 kts | 96° |
| 2026-04-15 10:11 | 51.23438 | 0.47415 | 16343 ft | 376 kts | 96° |
| 2026-04-15 10:11 | 51.23116 | 0.51566 | 16811 ft | 379 kts | 97° |
| 2026-04-15 10:11 | 51.22790 | 0.55727 | 17275 ft | 380 kts | 97° |
| 2026-04-15 10:11 | 51.22456 | 0.59939 | 17753 ft | 382 kts | 97° |
| 2026-04-15 10:12 | 51.22121 | 0.64137 | 18205 ft | 383 kts | 97° |
| 2026-04-15 10:12 | 51.21784 | 0.68349 | 18646 ft | 385 kts | 97° |
| 2026-04-15 10:12 | 51.21441 | 0.72595 | 19068 ft | 387 kts | 97° |
| 2026-04-15 10:12 | 51.21095 | 0.76874 | 19490 ft | 388 kts | 97° |
| 2026-04-15 10:13 | 51.20748 | 0.81154 | 19898 ft | 390 kts | 98° |
| 2026-04-15 10:13 | 51.20406 | 0.85431 | 20298 ft | 391 kts | 97° |
| 2026-04-15 10:13 | 51.20112 | 0.89767 | 20707 ft | 393 kts | 97° |
| 2026-04-15 10:13 | 51.19797 | 0.94100 | 21083 ft | 394 kts | 98° |
| 2026-04-15 10:14 | 51.19455 | 0.98442 | 21464 ft | 396 kts | 98° |
| 2026-04-15 10:14 | 51.19098 | 1.02806 | 21823 ft | 397 kts | 98° |
| 2026-04-15 10:14 | 51.18738 | 1.07133 | 22198 ft | 397 kts | 98° |
| 2026-04-15 10:14 | 51.18375 | 1.11443 | 22963 ft | 387 kts | 99° |
| 2026-04-15 10:15 | 51.18020 | 1.15649 | 23542 ft | 383 kts | 99° |
| 2026-04-15 10:15 | 51.17661 | 1.19881 | 23831 ft | 386 kts | 99° |
| 2026-04-15 10:15 | 51.17301 | 1.24113 | 24137 ft | 388 kts | 99° |
| 2026-04-15 10:15 | 51.16938 | 1.28387 | 24467 ft | 389 kts | 99° |
| 2026-04-15 10:16 | 51.16576 | 1.32652 | 24795 ft | 390 kts | 99° |
| 2026-04-15 10:16 | 51.16216 | 1.36961 | 25067 ft | 392 kts | 98° |
| 2026-04-15 10:16 | 51.15955 | 1.41291 | 25376 ft | 394 kts | 96° |
| 2026-04-15 10:16 | 51.15769 | 1.45601 | 25688 ft | 395 kts | 96° |
| 2026-04-15 10:17 | 51.15594 | 1.49967 | 25941 ft | 397 kts | 95° |
| 2026-04-15 10:17 | 51.15438 | 1.54393 | 26199 ft | 399 kts | 96° |
| 2026-04-15 10:17 | 51.15246 | 1.58789 | 26485 ft | 399 kts | 96° |
| 2026-04-15 10:17 | 51.15032 | 1.63210 | 26763 ft | 400 kts | 97° |
| 2026-04-15 10:18 | 51.14807 | 1.67646 | 27002 ft | 402 kts | 97° |
| 2026-04-15 10:18 | 51.14577 | 1.72097 | 27274 ft | 402 kts | 97° |
| 2026-04-15 10:18 | 51.14343 | 1.76552 | 27504 ft | 404 kts | 97° |
| 2026-04-15 10:18 | 51.14110 | 1.80963 | 27727 ft | 406 kts | 97° |
| 2026-04-15 10:19 | 51.13873 | 1.85440 | 27958 ft | 407 kts | 97° |
| 2026-04-15 10:19 | 51.13631 | 1.89993 | 28204 ft | 408 kts | 97° |
| 2026-04-15 10:19 | 51.13395 | 1.94448 | 28401 ft | 409 kts | 97° |
| 2026-04-15 10:19 | 51.13154 | 1.98981 | 28621 ft | 410 kts | 97° |
| 2026-04-15 10:20 | 51.12914 | 2.03503 | 28853 ft | 411 kts | 97° |
| 2026-04-15 10:20 | 51.12667 | 2.08055 | 29044 ft | 412 kts | 97° |
| 2026-04-15 10:20 | 51.12418 | 2.12617 | 29239 ft | 414 kts | 97° |
| 2026-04-15 10:20 | 51.12198 | 2.17180 | 29460 ft | 415 kts | 96° |
| 2026-04-15 10:21 | 51.11982 | 2.21780 | 29641 ft | 416 kts | 97° |
| 2026-04-15 10:21 | 51.11742 | 2.26361 | 29847 ft | 416 kts | 97° |
| 2026-04-15 10:21 | 51.11488 | 2.30951 | 30124 ft | 415 kts | 98° |
| 2026-04-15 10:21 | 51.11231 | 2.35459 | 30339 ft | 415 kts | 98° |
| 2026-04-15 10:22 | 51.10967 | 2.40051 | 30517 ft | 416 kts | 98° |
| 2026-04-15 10:22 | 51.10702 | 2.44619 | 30718 ft | 416 kts | 98° |
| 2026-04-15 10:22 | 51.10430 | 2.49274 | 30958 ft | 416 kts | 98° |
| 2026-04-15 10:22 | 51.10166 | 2.53789 | 31124 ft | 417 kts | 98° |
| 2026-04-15 10:23 | 51.09887 | 2.58392 | 31347 ft | 416 kts | 99° |
| 2026-04-15 10:23 | 51.09345 | 2.62884 | 31551 ft | 414 kts | 107° |
| 2026-04-15 10:23 | 51.08425 | 2.67228 | 31727 ft | 413 kts | 114° |
| 2026-04-15 10:23 | 51.07274 | 2.71428 | 31961 ft | 412 kts | 116° |
| 2026-04-15 10:24 | 51.06018 | 2.75508 | 32127 ft | 413 kts | 118° |
| 2026-04-15 10:24 | 51.04682 | 2.79586 | 32308 ft | 414 kts | 118° |
| 2026-04-15 10:24 | 51.03337 | 2.83637 | 32478 ft | 414 kts | 119° |
| 2026-04-15 10:24 | 51.01993 | 2.87659 | 32699 ft | 414 kts | 119° |
| 2026-04-15 10:25 | 51.00637 | 2.91706 | 32871 ft | 414 kts | 119° |
| 2026-04-15 10:25 | 50.99281 | 2.95742 | 33043 ft | 415 kts | 119° |
| 2026-04-15 10:25 | 50.97940 | 2.99726 | 33243 ft | 414 kts | 119° |
| 2026-04-15 10:25 | 50.96578 | 3.03763 | 33395 ft | 415 kts | 119° |
| 2026-04-15 10:26 | 50.95211 | 3.07808 | 33607 ft | 415 kts | 119° |
| 2026-04-15 10:26 | 50.93846 | 3.11842 | 33795 ft | 415 kts | 119° |
| 2026-04-15 10:26 | 50.92505 | 3.15877 | 33964 ft | 415 kts | 118° |
| 2026-04-15 10:26 | 50.91170 | 3.19939 | 34167 ft | 414 kts | 118° |
| 2026-04-15 10:27 | 50.89825 | 3.23985 | 34287 ft | 416 kts | 118° |
| 2026-04-15 10:27 | 50.88472 | 3.28025 | 34455 ft | 416 kts | 119° |
| 2026-04-15 10:27 | 50.87106 | 3.32080 | 34615 ft | 416 kts | 119° |
| 2026-04-15 10:27 | 50.85736 | 3.36132 | 34744 ft | 417 kts | 119° |
| 2026-04-15 10:28 | 50.80254 | 3.52240 | 35023 ft | 424 kts | 119° |
| 2026-04-15 10:29 | 50.78857 | 3.56328 | 35024 ft | 424 kts | 119° |
| 2026-04-15 10:29 | 50.76082 | 3.64526 | 35024 ft | 422 kts | 119° |
| 2026-04-15 10:30 | 50.73303 | 3.72675 | 35024 ft | 421 kts | 120° |
| 2026-04-15 10:30 | 50.70485 | 3.80806 | 35023 ft | 422 kts | 120° |
| 2026-04-15 10:31 | 50.67660 | 3.88917 | 35023 ft | 422 kts | 120° |
| 2026-04-15 10:31 | 50.64849 | 3.96968 | 35023 ft | 422 kts | 120° |
| 2026-04-15 10:32 | 50.62023 | 4.05060 | 35023 ft | 421 kts | 120° |
| 2026-04-15 10:32 | 50.59184 | 4.13118 | 35023 ft | 421 kts | 120° |
| 2026-04-15 10:33 | 50.56341 | 4.21129 | 35024 ft | 421 kts | 120° |
| 2026-04-15 10:33 | 50.53938 | 4.27880 | 35024 ft | 421 kts | 120° |
| 2026-04-15 10:34 | 50.50605 | 4.37213 | 35024 ft | 421 kts | 120° |
| 2026-04-15 10:34 | 50.47737 | 4.45221 | 35023 ft | 421 kts | 120° |
| 2026-04-15 10:35 | 50.44866 | 4.53227 | 35023 ft | 421 kts | 120° |
| 2026-04-15 10:35 | 50.42052 | 4.61263 | 35024 ft | 420 kts | 120° |
| 2026-04-15 10:36 | 50.39215 | 4.69236 | 35024 ft | 421 kts | 120° |
| 2026-04-15 10:36 | 50.36345 | 4.77228 | 35023 ft | 421 kts | 120° |
| 2026-04-15 10:37 | 50.33464 | 4.85212 | 35023 ft | 421 kts | 121° |
| 2026-04-15 10:37 | 50.30571 | 4.93201 | 35023 ft | 421 kts | 120° |
| 2026-04-15 10:38 | 50.28204 | 4.99855 | 35023 ft | 421 kts | 120° |
| 2026-04-15 10:38 | 50.25310 | 5.07807 | 35023 ft | 421 kts | 121° |
| 2026-04-15 10:39 | 50.22398 | 5.15734 | 35023 ft | 421 kts | 121° |
| 2026-04-15 10:39 | 50.19471 | 5.23669 | 35025 ft | 421 kts | 121° |
| 2026-04-15 10:40 | 50.16571 | 5.31521 | 35025 ft | 420 kts | 121° |
| 2026-04-15 10:40 | 50.13743 | 5.39197 | 35025 ft | 420 kts | 121° |
| 2026-04-15 10:41 | 50.10906 | 5.47164 | 35023 ft | 420 kts | 120° |
| 2026-04-15 10:41 | 50.08062 | 5.55108 | 35023 ft | 420 kts | 121° |
| 2026-04-15 10:42 | 50.05392 | 5.62532 | 35022 ft | 420 kts | 121° |
| 2026-04-15 10:42 | 50.02539 | 5.70440 | 35022 ft | 419 kts | 121° |
| 2026-04-15 10:43 | 49.99676 | 5.78353 | 35023 ft | 419 kts | 121° |
| 2026-04-15 10:43 | 49.96828 | 5.86268 | 35023 ft | 419 kts | 120° |
| 2026-04-15 10:44 | 49.94015 | 5.94188 | 35023 ft | 419 kts | 121° |
| 2026-04-15 10:44 | 49.91161 | 6.02101 | 35024 ft | 419 kts | 121° |
| 2026-04-15 10:45 | 49.88329 | 6.09936 | 35024 ft | 419 kts | 120° |
| 2026-04-15 10:45 | 49.85485 | 6.17842 | 35026 ft | 419 kts | 121° |
| 2026-04-15 10:46 | 49.82601 | 6.25697 | 35022 ft | 420 kts | 121° |
| 2026-04-15 10:46 | 49.79695 | 6.33562 | 35022 ft | 420 kts | 121° |
| 2026-04-15 10:47 | 49.76789 | 6.41408 | 35022 ft | 421 kts | 121° |
| 2026-04-15 10:47 | 49.73873 | 6.49273 | 35023 ft | 422 kts | 121° |
| 2026-04-15 10:48 | 49.71017 | 6.57196 | 35024 ft | 422 kts | 120° |
| 2026-04-15 10:48 | 49.68274 | 6.65225 | 35025 ft | 423 kts | 120° |
| 2026-04-15 10:49 | 49.65520 | 6.73195 | 35026 ft | 423 kts | 120° |
| 2026-04-15 10:49 | 49.62730 | 6.81216 | 35034 ft | 424 kts | 120° |
| 2026-04-15 10:50 | 49.59929 | 6.89234 | 35041 ft | 424 kts | 120° |
| 2026-04-15 10:50 | 49.57122 | 6.97242 | 35046 ft | 426 kts | 120° |
| 2026-04-15 10:51 | 49.54358 | 7.05305 | 35047 ft | 426 kts | 120° |
| 2026-04-15 10:51 | 49.51572 | 7.13346 | 35048 ft | 426 kts | 120° |
| 2026-04-15 10:52 | 49.48766 | 7.21362 | 35046 ft | 427 kts | 120° |
| 2026-04-15 10:52 | 49.45938 | 7.29393 | 35046 ft | 427 kts | 121° |
| 2026-04-15 10:53 | 49.43109 | 7.37398 | 35045 ft | 427 kts | 121° |
| 2026-04-15 10:53 | 49.40299 | 7.45443 | 35043 ft | 427 kts | 120° |
| 2026-04-15 10:54 | 49.37457 | 7.53465 | 35041 ft | 427 kts | 121° |
| 2026-04-15 10:54 | 49.34596 | 7.61443 | 35041 ft | 427 kts | 121° |
| 2026-04-15 10:55 | 49.31719 | 7.69430 | 35042 ft | 427 kts | 121° |
| 2026-04-15 10:55 | 49.28850 | 7.77384 | 35045 ft | 427 kts | 121° |
| 2026-04-15 10:56 | 49.25990 | 7.85321 | 35048 ft | 428 kts | 121° |
| 2026-04-15 10:56 | 49.23171 | 7.93319 | 35051 ft | 428 kts | 121° |
| 2026-04-15 10:57 | 49.20297 | 8.01303 | 35054 ft | 428 kts | 121° |
| 2026-04-15 10:57 | 49.15951 | 8.13276 | 35059 ft | 430 kts | 121° |
| 2026-04-15 10:58 | 49.13047 | 8.21253 | 35062 ft | 430 kts | 121° |
| 2026-04-15 10:58 | 49.10137 | 8.29247 | 35063 ft | 431 kts | 121° |
| 2026-04-15 10:59 | 49.07212 | 8.37207 | 35064 ft | 431 kts | 122° |
| 2026-04-15 10:59 | 49.04249 | 8.45161 | 35065 ft | 431 kts | 122° |
| 2026-04-15 11:00 | 49.01257 | 8.53094 | 35061 ft | 430 kts | 125° |
| 2026-04-15 11:00 | 48.97512 | 8.60037 | 35066 ft | 427 kts | 138° |
| 2026-04-15 11:01 | 48.93016 | 8.65967 | 35064 ft | 426 kts | 143° |
| 2026-04-15 11:01 | 48.88384 | 8.71548 | 35063 ft | 426 kts | 143° |
| 2026-04-15 11:02 | 48.83737 | 8.77120 | 35061 ft | 426 kts | 143° |
| 2026-04-15 11:02 | 48.79078 | 8.82696 | 35059 ft | 426 kts | 143° |
| 2026-04-15 11:03 | 48.74418 | 8.88259 | 35059 ft | 426 kts | 143° |
| 2026-04-15 11:03 | 48.69775 | 8.93849 | 35056 ft | 426 kts | 143° |
| 2026-04-15 11:04 | 48.65120 | 8.99447 | 35054 ft | 426 kts | 143° |
| 2026-04-15 11:04 | 48.60502 | 9.04956 | 35053 ft | 426 kts | 143° |
| 2026-04-15 11:05 | 48.55830 | 9.10507 | 35053 ft | 426 kts | 143° |
| 2026-04-15 11:05 | 48.51178 | 9.16019 | 35052 ft | 425 kts | 143° |
| 2026-04-15 11:06 | 48.46524 | 9.21577 | 35051 ft | 427 kts | 143° |
| 2026-04-15 11:06 | 48.41847 | 9.27087 | 35048 ft | 426 kts | 144° |
| 2026-04-15 11:07 | 48.37172 | 9.32565 | 35045 ft | 425 kts | 144° |
| 2026-04-15 11:07 | 48.32515 | 9.38009 | 35042 ft | 426 kts | 144° |
| 2026-04-15 11:08 | 48.27844 | 9.43462 | 35039 ft | 425 kts | 144° |
| 2026-04-15 11:08 | 48.23205 | 9.49003 | 35035 ft | 425 kts | 141° |
| 2026-04-15 11:09 | 48.18756 | 9.54848 | 35033 ft | 426 kts | 141° |
| 2026-04-15 11:09 | 48.14288 | 9.60666 | 35031 ft | 425 kts | 141° |
| 2026-04-15 11:10 | 48.09803 | 9.66455 | 35029 ft | 425 kts | 141° |
| 2026-04-15 11:10 | 48.05383 | 9.72236 | 35028 ft | 425 kts | 141° |
| 2026-04-15 11:11 | 48.00897 | 9.78032 | 35030 ft | 425 kts | 142° |
| 2026-04-15 11:11 | 47.96405 | 9.83778 | 35032 ft | 425 kts | 142° |
| 2026-04-15 11:12 | 47.91917 | 9.89499 | 35035 ft | 425 kts | 142° |
| 2026-04-15 11:12 | 47.87414 | 9.95233 | 35031 ft | 425 kts | 141° |
| 2026-04-15 11:13 | 47.83413 | 10.01760 | 35029 ft | 429 kts | 128° |
| 2026-04-15 11:13 | 47.80187 | 10.09194 | 35025 ft | 431 kts | 124° |
| 2026-04-15 11:14 | 47.77138 | 10.16867 | 35023 ft | 432 kts | 123° |
| 2026-04-15 11:14 | 47.74079 | 10.24562 | 35020 ft | 432 kts | 123° |
| 2026-04-15 11:15 | 47.71025 | 10.32233 | 35019 ft | 432 kts | 124° |
| 2026-04-15 11:15 | 47.67956 | 10.39917 | 35016 ft | 433 kts | 124° |
| 2026-04-15 11:16 | 47.64908 | 10.47645 | 35015 ft | 434 kts | 123° |
| 2026-04-15 11:16 | 47.61862 | 10.55401 | 35009 ft | 434 kts | 123° |
| 2026-04-15 11:17 | 47.58813 | 10.63073 | 35003 ft | 435 kts | 123° |
| 2026-04-15 11:17 | 47.55727 | 10.70792 | 35000 ft | 435 kts | 123° |
| 2026-04-15 11:18 | 47.52633 | 10.78497 | 34996 ft | 436 kts | 123° |
| 2026-04-15 11:18 | 47.49522 | 10.86219 | 34991 ft | 436 kts | 123° |
| 2026-04-15 11:19 | 47.46401 | 10.93943 | 34984 ft | 437 kts | 123° |
| 2026-04-15 11:19 | 47.43278 | 11.01648 | 34978 ft | 438 kts | 123° |
| 2026-04-15 11:20 | 47.40148 | 11.09352 | 34972 ft | 438 kts | 123° |
| 2026-04-15 11:20 | 47.37020 | 11.17026 | 34968 ft | 439 kts | 123° |
| 2026-04-15 11:21 | 47.33869 | 11.24737 | 34965 ft | 439 kts | 123° |
| 2026-04-15 11:21 | 47.30709 | 11.32447 | 34964 ft | 439 kts | 123° |
| 2026-04-15 11:22 | 47.27541 | 11.40157 | 34965 ft | 440 kts | 123° |
| 2026-04-15 11:22 | 47.24374 | 11.47873 | 34964 ft | 440 kts | 123° |
| 2026-04-15 11:23 | 47.21215 | 11.55609 | 34961 ft | 441 kts | 123° |
| 2026-04-15 11:23 | 47.18016 | 11.63305 | 34959 ft | 441 kts | 124° |
| 2026-04-15 11:24 | 47.14887 | 11.70795 | 34956 ft | 441 kts | 124° |
| 2026-04-15 11:24 | 47.11682 | 11.78448 | 34953 ft | 441 kts | 124° |
| 2026-04-15 11:25 | 47.08464 | 11.86133 | 34955 ft | 441 kts | 123° |
| 2026-04-15 11:25 | 47.05607 | 11.94073 | 34964 ft | 443 kts | 118° |
| 2026-04-15 11:26 | 47.02937 | 12.02225 | 34965 ft | 444 kts | 118° |
| 2026-04-15 11:26 | 47.00222 | 12.10355 | 34965 ft | 444 kts | 118° |
| 2026-04-15 11:27 | 46.97487 | 12.18459 | 34965 ft | 444 kts | 118° |
| 2026-04-15 11:27 | 46.94735 | 12.26567 | 34964 ft | 444 kts | 118° |
| 2026-04-15 11:28 | 46.91999 | 12.34671 | 34964 ft | 444 kts | 117° |
| 2026-04-15 11:28 | 46.89302 | 12.42766 | 34964 ft | 443 kts | 118° |
| 2026-04-15 11:29 | 46.86581 | 12.50811 | 34963 ft | 443 kts | 118° |
| 2026-04-15 11:29 | 46.83831 | 12.58878 | 34963 ft | 443 kts | 118° |
| 2026-04-15 11:30 | 46.81071 | 12.66941 | 34963 ft | 443 kts | 118° |
| 2026-04-15 11:30 | 46.78305 | 12.74992 | 34962 ft | 443 kts | 118° |
| 2026-04-15 11:31 | 46.75534 | 12.83032 | 34961 ft | 443 kts | 118° |
| 2026-04-15 11:31 | 46.72760 | 12.91056 | 34959 ft | 443 kts | 118° |
| 2026-04-15 11:32 | 46.70006 | 12.99081 | 34951 ft | 443 kts | 118° |
| 2026-04-15 11:32 | 46.67708 | 13.05752 | 34944 ft | 443 kts | 118° |
| 2026-04-15 11:33 | 46.64449 | 13.15061 | 34939 ft | 443 kts | 118° |
| 2026-04-15 11:33 | 46.62115 | 13.21693 | 34939 ft | 443 kts | 118° |
| 2026-04-15 11:34 | 46.59307 | 13.29658 | 34936 ft | 442 kts | 118° |
| 2026-04-15 11:34 | 46.56190 | 13.37343 | 34936 ft | 441 kts | 127° |
| 2026-04-15 11:35 | 46.52193 | 13.44084 | 34936 ft | 439 kts | 135° |
| 2026-04-15 11:35 | 46.47900 | 13.50384 | 34935 ft | 439 kts | 136° |
| 2026-04-15 11:36 | 46.43605 | 13.56640 | 34935 ft | 440 kts | 136° |
| 2026-04-15 11:36 | 46.39262 | 13.62954 | 34936 ft | 440 kts | 136° |
| 2026-04-15 11:37 | 46.34966 | 13.69187 | 34937 ft | 440 kts | 136° |
| 2026-04-15 11:37 | 46.30663 | 13.75464 | 34938 ft | 439 kts | 135° |
| 2026-04-15 11:38 | 46.26376 | 13.81772 | 34944 ft | 440 kts | 136° |
| 2026-04-15 11:38 | 46.22069 | 13.88054 | 34947 ft | 440 kts | 136° |
| 2026-04-15 11:39 | 46.17744 | 13.94326 | 34947 ft | 440 kts | 136° |
| 2026-04-15 11:39 | 46.13420 | 14.00576 | 34949 ft | 440 kts | 136° |
| 2026-04-15 11:40 | 46.09083 | 14.06823 | 34951 ft | 440 kts | 136° |
| 2026-04-15 11:40 | 46.04751 | 14.13048 | 34952 ft | 440 kts | 136° |
| 2026-04-15 11:41 | 46.00421 | 14.19256 | 34953 ft | 440 kts | 136° |
| 2026-04-15 11:41 | 45.96101 | 14.25433 | 34952 ft | 440 kts | 136° |
| 2026-04-15 11:42 | 45.91750 | 14.31641 | 34952 ft | 441 kts | 136° |
| 2026-04-15 11:42 | 45.87392 | 14.37844 | 34953 ft | 441 kts | 136° |
| 2026-04-15 11:43 | 45.83017 | 14.44056 | 34952 ft | 442 kts | 136° |
| 2026-04-15 11:43 | 45.78638 | 14.50260 | 34951 ft | 442 kts | 136° |
| 2026-04-15 11:44 | 45.74261 | 14.56446 | 34950 ft | 443 kts | 136° |
| 2026-04-15 11:44 | 45.69884 | 14.62617 | 34951 ft | 444 kts | 136° |
| 2026-04-15 11:45 | 45.65485 | 14.68806 | 34949 ft | 444 kts | 136° |
| 2026-04-15 11:45 | 45.61067 | 14.75006 | 34948 ft | 444 kts | 136° |
| 2026-04-15 11:46 | 45.56647 | 14.81196 | 34946 ft | 445 kts | 136° |
| 2026-04-15 11:46 | 45.52215 | 14.87387 | 34945 ft | 446 kts | 136° |
| 2026-04-15 11:47 | 45.47786 | 14.93560 | 34945 ft | 446 kts | 136° |
| 2026-04-15 11:47 | 45.43366 | 14.99706 | 34944 ft | 447 kts | 136° |
| 2026-04-15 11:48 | 45.38914 | 15.05883 | 34943 ft | 447 kts | 136° |
| 2026-04-15 11:48 | 45.34465 | 15.12039 | 34943 ft | 447 kts | 136° |
| 2026-04-15 11:49 | 45.29985 | 15.18226 | 34943 ft | 447 kts | 136° |
| 2026-04-15 11:49 | 45.25549 | 15.24340 | 34943 ft | 448 kts | 136° |
| 2026-04-15 11:50 | 45.21073 | 15.30490 | 34942 ft | 448 kts | 136° |
| 2026-04-15 11:50 | 45.16592 | 15.36636 | 34939 ft | 448 kts | 136° |
| 2026-04-15 11:51 | 45.07862 | 15.48567 | 34936 ft | 448 kts | 136° |
| 2026-04-15 11:52 | 45.03362 | 15.54695 | 34939 ft | 448 kts | 136° |
| 2026-04-15 11:52 | 44.98899 | 15.60761 | 34943 ft | 449 kts | 136° |
| 2026-04-15 11:53 | 44.94383 | 15.66883 | 34941 ft | 450 kts | 136° |
| 2026-04-15 11:53 | 44.89860 | 15.73002 | 34939 ft | 449 kts | 136° |
| 2026-04-15 11:54 | 44.85335 | 15.79109 | 34936 ft | 451 kts | 136° |
| 2026-04-15 11:54 | 44.80811 | 15.85201 | 34934 ft | 450 kts | 136° |
| 2026-04-15 11:55 | 44.76264 | 15.91309 | 34933 ft | 452 kts | 136° |
| 2026-04-15 11:55 | 44.71711 | 15.97413 | 34930 ft | 451 kts | 136° |
| 2026-04-15 11:56 | 44.66671 | 16.04150 | 34928 ft | 452 kts | 136° |
| 2026-04-15 11:56 | 44.62117 | 16.10226 | 34933 ft | 452 kts | 136° |
| 2026-04-15 11:57 | 44.55265 | 16.19340 | 34939 ft | 453 kts | 136° |
| 2026-04-15 11:58 | 44.50695 | 16.25401 | 34939 ft | 452 kts | 136° |
| 2026-04-15 11:58 | 44.46123 | 16.31452 | 34940 ft | 452 kts | 136° |
| 2026-04-15 11:59 | 44.41545 | 16.37497 | 34946 ft | 452 kts | 136° |
| 2026-04-15 11:59 | 44.36952 | 16.43548 | 34945 ft | 452 kts | 136° |
| 2026-04-15 12:00 | 44.32366 | 16.49576 | 34942 ft | 452 kts | 136° |
| 2026-04-15 12:00 | 44.27804 | 16.55558 | 34940 ft | 452 kts | 136° |
| 2026-04-15 12:01 | 44.23222 | 16.61555 | 34937 ft | 453 kts | 136° |
| 2026-04-15 12:01 | 44.18617 | 16.67567 | 34935 ft | 453 kts | 136° |
| 2026-04-15 12:02 | 44.14004 | 16.73576 | 34932 ft | 453 kts | 136° |
| 2026-04-15 12:02 | 44.09402 | 16.79559 | 34927 ft | 452 kts | 136° |
| 2026-04-15 12:03 | 44.05576 | 16.84522 | 34921 ft | 452 kts | 136° |
| 2026-04-15 12:03 | 44.00215 | 16.91460 | 34918 ft | 452 kts | 136° |
| 2026-04-15 12:04 | 43.96345 | 16.96458 | 34917 ft | 456 kts | 136° |
| 2026-04-15 12:04 | 43.91655 | 17.02501 | 34915 ft | 460 kts | 137° |
| 2026-04-15 12:05 | 43.86992 | 17.08497 | 34912 ft | 458 kts | 137° |
| 2026-04-15 12:05 | 43.82309 | 17.14505 | 34909 ft | 459 kts | 137° |
| 2026-04-15 12:06 | 43.77608 | 17.20524 | 34904 ft | 460 kts | 137° |
| 2026-04-15 12:06 | 43.72910 | 17.26524 | 34902 ft | 459 kts | 137° |
| 2026-04-15 12:07 | 43.68214 | 17.32509 | 34904 ft | 459 kts | 137° |
| 2026-04-15 12:07 | 43.63540 | 17.38452 | 34905 ft | 458 kts | 137° |
| 2026-04-15 12:08 | 43.58846 | 17.44408 | 34902 ft | 458 kts | 137° |
| 2026-04-15 12:08 | 43.54141 | 17.50364 | 34898 ft | 459 kts | 137° |
| 2026-04-15 12:09 | 43.49433 | 17.56321 | 34891 ft | 460 kts | 136° |
| 2026-04-15 12:09 | 43.44730 | 17.62295 | 34886 ft | 459 kts | 137° |
| 2026-04-15 12:10 | 43.40008 | 17.68223 | 34882 ft | 459 kts | 137° |
| 2026-04-15 12:10 | 43.35281 | 17.74138 | 34879 ft | 460 kts | 137° |
| 2026-04-15 12:11 | 43.30543 | 17.80054 | 34877 ft | 461 kts | 137° |
| 2026-04-15 12:11 | 43.25804 | 17.85969 | 34876 ft | 461 kts | 137° |
| 2026-04-15 12:12 | 43.20985 | 17.91701 | 34877 ft | 461 kts | 139° |
| 2026-04-15 12:12 | 43.16092 | 17.97401 | 34880 ft | 462 kts | 139° |
| 2026-04-15 12:13 | 43.11200 | 18.03111 | 34885 ft | 462 kts | 139° |
| 2026-04-15 12:13 | 43.06311 | 18.08814 | 34891 ft | 462 kts | 139° |
| 2026-04-15 12:14 | 43.01410 | 18.14523 | 34898 ft | 463 kts | 140° |
| 2026-04-15 12:14 | 42.96527 | 18.20271 | 34906 ft | 463 kts | 139° |
| 2026-04-15 12:15 | 42.91643 | 18.26009 | 34913 ft | 463 kts | 139° |
| 2026-04-15 12:15 | 42.86771 | 18.31695 | 34921 ft | 464 kts | 140° |
| 2026-04-15 12:16 | 42.81856 | 18.37410 | 34926 ft | 464 kts | 140° |
| 2026-04-15 12:16 | 42.76943 | 18.43107 | 34929 ft | 464 kts | 140° |
| 2026-04-15 12:17 | 42.72017 | 18.48804 | 34931 ft | 464 kts | 140° |
| 2026-04-15 12:17 | 42.67099 | 18.54480 | 34932 ft | 464 kts | 140° |
| 2026-04-15 12:18 | 42.62163 | 18.60163 | 34932 ft | 464 kts | 140° |
| 2026-04-15 12:18 | 42.57244 | 18.65815 | 34933 ft | 464 kts | 140° |
| 2026-04-15 12:19 | 42.52302 | 18.71480 | 34935 ft | 464 kts | 140° |
| 2026-04-15 12:19 | 42.47402 | 18.77086 | 34935 ft | 464 kts | 140° |
| 2026-04-15 12:20 | 42.42469 | 18.82718 | 34935 ft | 464 kts | 140° |
| 2026-04-15 12:20 | 42.37530 | 18.88344 | 34935 ft | 464 kts | 140° |
| 2026-04-15 12:21 | 42.32592 | 18.93956 | 34934 ft | 464 kts | 140° |
| 2026-04-15 12:21 | 42.27638 | 18.99576 | 34935 ft | 464 kts | 140° |
| 2026-04-15 12:22 | 42.22686 | 19.05182 | 34935 ft | 464 kts | 140° |
| 2026-04-15 12:22 | 42.17736 | 19.10772 | 34935 ft | 464 kts | 140° |
| 2026-04-15 12:23 | 42.12789 | 19.16348 | 34935 ft | 464 kts | 140° |
| 2026-04-15 12:23 | 42.07839 | 19.21916 | 34935 ft | 464 kts | 140° |
| 2026-04-15 12:24 | 42.02881 | 19.27481 | 34933 ft | 463 kts | 140° |
| 2026-04-15 12:24 | 41.97925 | 19.33033 | 34932 ft | 465 kts | 141° |
| 2026-04-15 12:25 | 41.92941 | 19.38603 | 34932 ft | 467 kts | 141° |
| 2026-04-15 12:25 | 41.87935 | 19.44185 | 34931 ft | 466 kts | 141° |
| 2026-04-15 12:26 | 41.82983 | 19.49697 | 34931 ft | 465 kts | 141° |